Time;durP1;ratioP1;P1;durP2;ratioP2;P2;SDS_P1;SDS_P2;PMS_P1;PMS_P2;Temp;Humidity;BMP_temperature;BMP_pressure;BME280_temperature;BME280_humidity;BME280_pressure;Samples;Min_cycle;Max_cycle;Signal;HPM_P1;HPM_P2
2022/03/30 00:00:50;;;;;;;;;23.00;18.25;;;;;7.25;78.29;-18670.16;4977800;28;11215;-69
2022/03/30 00:03:17;;;;;;;;;16.50;14.75;;;;;7.26;77.41;-18670.31;4988629;28;11342;-68
2022/03/30 00:05:44;;;;;;;;;25.00;17.00;;;;;7.22;78.29;-18669.25;4977982;28;11644;-68
2022/03/30 00:08:13;;;;;;;;;18.50;17.00;;;;;7.18;77.94;-18667.88;4974649;28;11274;-68
2022/03/30 00:10:39;;;;;;;;;19.50;17.50;;;;;7.12;79.04;-18666.22;4974241;28;11562;-67
2022/03/30 00:13:06;;;;;;;;;11.75;6.75;;;;;7.22;78.48;-18669.09;4974295;28;11708;-69
2022/03/30 00:15:34;;;;;;;;;14.00;13.25;;;;;7.04;77.80;-18663.81;4974225;28;11179;-68
2022/03/30 00:18:00;;;;;;;;;24.00;22.50;;;;;7.03;77.69;-18663.50;4973350;28;11306;-68
2022/03/30 00:20:27;;;;;;;;;18.50;15.50;;;;;7.06;77.90;-18664.41;4972531;28;11595;-67
2022/03/30 00:22:53;;;;;;;;;20.75;20.25;;;;;7.01;77.98;-18662.91;4971719;28;11680;-67
2022/03/30 00:25:20;;;;;;;;;25.00;22.00;;;;;6.94;77.59;-18660.94;4973650;28;11669;-68
2022/03/30 00:27:47;;;;;;;;;21.75;19.25;;;;;6.82;78.46;-18657.31;4973988;28;11599;-68
2022/03/30 00:30:18;;;;;;;;;18.00;12.00;;;;;6.88;77.47;-18659.13;4973667;28;11570;-69
2022/03/30 00:32:45;;;;;;;;;10.75;10.00;;;;;6.78;77.71;-18656.09;4972110;28;11509;-68
2022/03/30 00:35:13;;;;;;;;;18.25;17.00;;;;;6.76;78.76;-18655.50;4971875;28;11322;-68
2022/03/30 00:37:39;;;;;;;;;18.00;13.25;;;;;6.83;78.09;-18657.47;4973668;28;12269;-68
2022/03/30 00:40:09;;;;;;;;;16.75;14.50;;;;;6.83;78.20;-18657.47;4972999;28;12308;-68
2022/03/30 00:42:35;;;;;;;;;16.75;16.25;;;;;6.87;78.45;-18658.81;4973466;28;12050;-68
2022/03/30 00:45:10;;;;;;;;;16.50;11.75;;;;;6.90;78.63;-18659.56;4973724;28;11367;-70
2022/03/30 00:47:37;;;;;;;;;13.00;11.75;;;;;6.86;78.54;-18658.50;4972612;28;11577;-69
2022/03/30 00:50:06;;;;;;;;;20.75;16.50;;;;;6.73;78.68;-18654.75;4972778;28;11541;-68
2022/03/30 00:52:33;;;;;;;;;20.00;19.50;;;;;6.69;78.83;-18653.53;4973045;28;11587;-68
2022/03/30 00:55:00;;;;;;;;;16.50;15.75;;;;;6.70;79.32;-18653.69;4972577;28;11561;-69
2022/03/30 00:57:29;;;;;;;;;22.75;19.50;;;;;6.70;78.87;-18653.69;4973180;28;11528;-69
2022/03/30 00:59:57;;;;;;;;;20.25;13.00;;;;;6.69;78.39;-18653.53;4971326;28;11507;-69
2022/03/30 01:02:25;;;;;;;;;18.50;18.00;;;;;6.70;78.55;-18653.69;4972971;28;11515;-68
2022/03/30 01:04:52;;;;;;;;;17.25;16.75;;;;;6.66;79.00;-18652.63;4971377;28;12364;-69
2022/03/30 01:07:18;;;;;;;;;19.25;13.50;;;;;6.71;78.71;-18653.97;4973205;28;12337;-68
2022/03/30 01:09:45;;;;;;;;;15.50;13.00;;;;;6.75;78.50;-18655.19;4971335;28;11656;-68
2022/03/30 01:12:12;;;;;;;;;14.25;11.50;;;;;6.76;78.30;-18655.66;4971106;28;11524;-69
2022/03/30 01:14:43;;;;;;;;;13.00;11.75;;;;;6.81;78.52;-18656.84;4972849;28;11501;-71
2022/03/30 01:17:10;;;;;;;;;18.50;13.25;;;;;6.79;77.95;-18656.41;4972966;28;11295;-68
2022/03/30 01:19:37;;;;;;;;;15.00;12.50;;;;;6.77;78.27;-18655.78;4971551;28;11221;-68
2022/03/30 01:22:06;;;;;;;;;11.00;11.00;;;;;6.72;78.21;-18654.44;4971166;28;11510;-69
2022/03/30 01:24:32;;;;;;;;;19.75;17.00;;;;;6.74;77.76;-18654.91;4971693;28;11858;-68
2022/03/30 01:26:59;;;;;;;;;12.00;12.00;;;;;6.68;77.85;-18653.06;4972639;28;11487;-69
2022/03/30 01:32:26;;;;;;;;;15.25;13.00;;;;;6.64;77.72;-18652.00;4971160;28;11986;-71
2022/03/30 01:34:54;;;;;;;;;19.50;14.50;;;;;6.57;78.51;-18649.91;4971804;28;11187;-71
2022/03/30 01:37:20;;;;;;;;;17.50;14.50;;;;;6.55;78.50;-18649.16;4972420;28;11288;-71
2022/03/30 01:39:47;;;;;;;;;18.50;15.00;;;;;6.61;78.65;-18650.97;4971110;28;12020;-71
2022/03/30 01:42:13;;;;;;;;;12.00;10.00;;;;;6.65;78.38;-18652.16;4971784;28;11537;-72
2022/03/30 01:44:40;;;;;;;;;6.75;4.00;;;;;6.63;78.23;-18651.72;4972394;28;11230;-71
2022/03/30 01:47:07;;;;;;;;;16.00;11.50;;;;;6.51;78.44;-18648.09;4972363;28;11223;-71
2022/03/30 01:49:33;;;;;;;;;13.00;10.00;;;;;6.54;78.38;-18649.00;4968866;28;11622;-72
2022/03/30 01:52:00;;;;;;;;;15.25;14.00;;;;;6.54;78.54;-18649.00;4969998;28;11536;-71
2022/03/30 01:54:28;;;;;;;;;14.75;9.50;;;;;6.59;78.42;-18650.50;4972267;28;11533;-71
2022/03/30 01:56:56;;;;;;;;;13.00;13.00;;;;;6.63;78.39;-18651.72;4972067;28;11192;-69
2022/03/30 01:59:22;;;;;;;;;14.00;13.50;;;;;6.69;78.06;-18653.38;4970974;28;11580;-69
2022/03/30 02:01:49;;;;;;;;;15.00;13.50;;;;;6.64;78.26;-18651.88;4970250;28;11317;-69
2022/03/30 02:04:15;;;;;;;;;13.50;11.75;;;;;6.66;77.82;-18652.63;4971309;28;11541;-71
2022/03/30 02:06:42;;;;;;;;;15.25;10.00;;;;;6.64;78.00;-18652.00;4972088;28;11505;-71
2022/03/30 02:09:11;;;;;;;;;13.25;12.25;;;;;6.64;78.45;-18651.88;4971930;28;11174;-69
2022/03/30 02:11:39;;;;;;;;;9.75;9.75;;;;;6.66;78.22;-18652.47;4971360;28;11532;-69
2022/03/30 02:14:05;;;;;;;;;7.75;7.00;;;;;6.59;78.14;-18650.50;4971396;28;11272;-70
2022/03/30 02:16:32;;;;;;;;;12.00;9.50;;;;;6.61;78.10;-18651.09;4971308;28;11364;-72
2022/03/30 02:18:58;;;;;;;;;16.00;9.00;;;;;6.62;78.11;-18651.41;4978180;28;11995;-68
2022/03/30 02:21:25;;;;;;;;;18.00;15.75;;;;;6.67;78.27;-18652.78;4971766;28;11618;-69
2022/03/30 02:23:51;;;;;;;;;14.25;11.25;;;;;6.65;77.97;-18652.16;4971810;28;11596;-71
2022/03/30 02:26:18;;;;;;;;;13.00;12.50;;;;;6.58;78.11;-18650.06;4971845;28;11634;-71
2022/03/30 02:28:51;;;;;;;;;14.50;13.75;;;;;6.63;78.32;-18651.72;4971334;28;12121;-69
2022/03/30 02:31:19;;;;;;;;;17.50;14.25;;;;;6.58;78.45;-18650.06;4970589;28;8848;-71
2022/03/30 02:33:46;;;;;;;;;16.00;14.00;;;;;6.58;78.19;-18650.19;4971675;28;11534;-71
2022/03/30 02:36:13;;;;;;;;;12.00;11.25;;;;;6.58;78.17;-18650.06;4970288;28;11304;-71
2022/03/30 02:38:41;;;;;;;;;18.25;15.00;;;;;6.52;78.39;-18648.38;4971380;28;11510;-72
2022/03/30 02:41:08;;;;;;;;;7.50;6.50;;;;;6.50;78.48;-18647.63;4971249;28;11412;-71
2022/03/30 02:43:35;;;;;;;;;14.00;12.50;;;;;6.48;78.74;-18647.19;4970072;28;10998;-71
2022/03/30 02:46:02;;;;;;;;;13.75;11.00;;;;;6.48;78.89;-18647.19;4970042;28;11520;-71
2022/03/30 02:48:29;;;;;;;;;12.00;10.50;;;;;6.45;78.81;-18646.44;4971408;28;11567;-71
2022/03/30 02:50:59;;;;;;;;;15.25;11.00;;;;;6.40;79.03;-18644.75;4970913;28;11526;-71
2022/03/30 02:53:25;;;;;;;;;13.00;10.00;;;;;6.35;79.12;-18643.25;4971566;28;11300;-72
2022/03/30 02:55:52;;;;;;;;;18.00;12.75;;;;;6.37;79.31;-18644.00;4970048;28;11982;-69
2022/03/30 02:58:19;;;;;;;;;10.00;10.00;;;;;6.35;79.06;-18643.25;4970454;28;11528;-69
2022/03/30 03:00:46;;;;;;;;;12.75;11.50;;;;;6.32;79.14;-18642.34;4971126;28;11527;-69
2022/03/30 03:03:13;;;;;;;;;15.75;15.50;;;;;6.27;79.34;-18640.97;4971094;28;12068;-71
2022/03/30 03:05:41;;;;;;;;;14.25;13.25;;;;;6.31;79.50;-18642.03;4971060;28;11537;-71
2022/03/30 03:08:10;;;;;;;;;11.75;9.00;;;;;6.28;79.53;-18641.28;4970121;28;11324;-71
2022/03/30 03:10:43;;;;;;;;;11.75;11.25;;;;;6.26;79.58;-18640.53;4971141;28;11641;-70
2022/03/30 03:13:11;;;;;;;;;14.00;9.50;;;;;6.18;79.58;-18638.41;4969490;28;11587;-71
2022/03/30 03:15:38;;;;;;;;;17.25;13.25;;;;;6.14;79.90;-18637.06;4971138;28;11284;-72
2022/03/30 03:18:05;;;;;;;;;13.75;11.75;;;;;6.09;80.00;-18635.53;4972513;28;11554;-72
2022/03/30 03:20:32;;;;;;;;;12.00;10.75;;;;;6.04;80.02;-18634.03;4973591;28;11493;-71
2022/03/30 03:23:03;;;;;;;;;14.25;9.75;;;;;5.98;80.31;-18632.38;4972385;28;11549;-69
2022/03/30 03:25:32;;;;;;;;;11.50;11.50;;;;;6.00;80.16;-18632.97;4972364;28;11145;-70
2022/03/30 03:28:00;;;;;;;;;14.75;13.25;;;;;6.01;80.15;-18633.28;4971606;28;11651;-69
2022/03/30 03:30:28;;;;;;;;;13.75;8.50;;;;;5.95;80.13;-18631.47;4971180;28;12245;-69
2022/03/30 03:32:56;;;;;;;;;14.75;12.50;;;;;5.93;80.31;-18630.84;4969809;28;11620;-69
2022/03/30 03:35:24;;;;;;;;;19.00;16.75;;;;;5.92;80.58;-18630.53;4970744;28;11543;-70
2022/03/30 03:37:51;;;;;;;;;14.00;10.50;;;;;5.88;80.22;-18629.34;4971697;28;11554;-70
2022/03/30 03:40:17;;;;;;;;;19.00;13.50;;;;;5.83;80.64;-18627.81;4971180;28;11585;-69
2022/03/30 03:42:44;;;;;;;;;19.75;15.00;;;;;5.83;80.62;-18627.81;4970773;28;11682;-69
2022/03/30 03:45:11;;;;;;;;;20.25;16.25;;;;;5.80;80.75;-18627.06;4971378;28;11662;-69
2022/03/30 03:47:38;;;;;;;;;12.00;9.50;;;;;5.74;80.59;-18625.09;4971803;28;11652;-71
2022/03/30 03:50:05;;;;;;;;;18.75;13.50;;;;;5.71;80.97;-18624.19;4971495;28;11538;-72
2022/03/30 03:52:32;;;;;;;;;16.25;14.75;;;;;5.68;80.96;-18623.28;4972807;28;11546;-69
2022/03/30 03:54:58;;;;;;;;;8.50;7.50;;;;;5.68;81.23;-18623.44;4974889;28;11536;-70
2022/03/30 03:57:25;;;;;;;;;13.00;7.50;;;;;5.63;81.14;-18621.78;4973015;28;11525;-71
2022/03/30 03:59:51;;;;;;;;;14.75;11.00;;;;;5.61;81.58;-18621.31;4974390;28;12234;-70
2022/03/30 04:02:18;;;;;;;;;14.00;9.75;;;;;5.63;81.47;-18621.78;4973909;28;11516;-69
2022/03/30 04:04:44;;;;;;;;;12.75;9.75;;;;;5.57;81.28;-18620.09;4972188;28;11533;-71
2022/03/30 04:07:11;;;;;;;;;13.75;11.50;;;;;5.56;81.19;-18619.81;4973227;28;11533;-69
2022/03/30 04:09:37;;;;;;;;;16.75;9.75;;;;;5.56;81.34;-18619.81;4972830;28;11550;-71
2022/03/30 04:12:05;;;;;;;;;12.75;10.00;;;;;5.54;80.89;-18619.34;4970528;28;11511;-71
2022/03/30 04:14:31;;;;;;;;;15.75;11.50;;;;;5.49;81.16;-18617.84;4974017;28;11502;-71
2022/03/30 04:16:58;;;;;;;;;13.50;12.75;;;;;5.49;81.14;-18617.84;4972281;28;11690;-71
2022/03/30 04:19:25;;;;;;;;;14.75;14.50;;;;;5.54;81.07;-18619.19;4973376;28;11576;-72
2022/03/30 04:21:52;;;;;;;;;19.00;15.00;;;;;5.51;81.23;-18618.44;4973359;28;11633;-72
2022/03/30 04:24:19;;;;;;;;;13.00;10.00;;;;;5.46;81.45;-18616.78;4974017;28;11516;-71
2022/03/30 04:26:45;;;;;;;;;15.75;14.75;;;;;5.48;81.97;-18617.53;4971830;28;11539;-72
2022/03/30 04:29:12;;;;;;;;;14.00;12.50;;;;;5.47;82.22;-18617.09;4973644;28;11532;-69
2022/03/30 04:31:38;;;;;;;;;17.25;15.00;;;;;5.44;82.25;-18616.19;4971980;28;11545;-69
2022/03/30 04:34:05;;;;;;;;;21.00;18.25;;;;;5.39;82.24;-18614.66;4973536;28;11668;-72
2022/03/30 04:36:31;;;;;;;;;19.25;13.00;;;;;5.38;82.23;-18614.38;4952344;28;11593;-71
2022/03/30 04:38:58;;;;;;;;;20.75;18.50;;;;;5.36;82.08;-18613.91;4972132;28;11595;-71
2022/03/30 04:41:24;;;;;;;;;16.75;15.50;;;;;5.34;82.75;-18613.16;4972890;28;11560;-71
2022/03/30 04:43:50;;;;;;;;;20.50;14.00;;;;;5.39;82.60;-18614.66;4973499;28;11522;-69
2022/03/30 04:46:17;;;;;;;;;16.50;15.00;;;;;5.41;82.33;-18615.41;4972998;28;11552;-72
2022/03/30 04:48:44;;;;;;;;;14.00;12.00;;;;;5.42;82.21;-18615.72;4971669;28;11695;-71
2022/03/30 04:51:11;;;;;;;;;14.25;13.50;;;;;5.46;82.19;-18616.78;4972878;28;11680;-69
2022/03/30 04:53:37;;;;;;;;;15.00;15.00;;;;;5.47;82.49;-18617.09;4973503;28;11512;-68
2022/03/30 04:56:04;;;;;;;;;12.00;9.00;;;;;5.51;82.72;-18618.28;4973263;28;11557;-70
2022/03/30 04:58:30;;;;;;;;;13.00;9.00;;;;;5.53;82.74;-18619.06;4972246;28;11498;-69
2022/03/30 05:00:57;;;;;;;;;14.50;14.50;;;;;5.60;83.01;-18620.88;4971916;28;11648;-71
2022/03/30 05:03:23;;;;;;;;;14.00;12.25;;;;;5.67;83.05;-18623.13;4967358;28;11532;-70
2022/03/30 05:05:50;;;;;;;;;8.75;5.25;;;;;5.75;83.38;-18625.56;4972997;28;11517;-70
2022/03/30 05:08:17;;;;;;;;;18.75;14.00;;;;;5.80;83.43;-18626.91;4967768;28;11610;-71
2022/03/30 05:10:46;;;;;;;;;13.25;13.25;;;;;5.83;83.91;-18627.97;4972211;28;11557;-71
2022/03/30 05:13:13;;;;;;;;;20.50;18.75;;;;;5.92;84.24;-18630.41;4961618;28;11517;-69
2022/03/30 05:15:40;;;;;;;;;14.75;12.25;;;;;5.98;83.91;-18632.38;4963816;28;11523;-68
2022/03/30 05:18:06;;;;;;;;;16.50;14.50;;;;;6.04;84.35;-18634.03;4971429;28;11541;-68
2022/03/30 05:20:33;;;;;;;;;8.75;8.25;;;;;6.05;84.67;-18634.34;4966578;28;11584;-69
2022/03/30 05:23:00;;;;;;;;;19.75;13.50;;;;;6.07;84.66;-18634.94;4970669;28;11628;-69
2022/03/30 05:25:26;;;;;;;;;16.00;13.00;;;;;6.10;85.18;-18635.84;4971245;28;11645;-68
2022/03/30 05:27:52;;;;;;;;;19.25;12.00;;;;;6.14;84.62;-18637.06;4971849;28;11647;-70
2022/03/30 05:30:19;;;;;;;;;19.00;12.25;;;;;6.10;84.80;-18635.84;4972348;28;11708;-69
2022/03/30 05:32:45;;;;;;;;;15.50;13.25;;;;;6.14;85.06;-18637.19;4972403;28;11524;-68
2022/03/30 05:35:13;;;;;;;;;23.00;15.75;;;;;6.16;85.34;-18637.81;4972407;28;11540;-69
2022/03/30 05:37:40;;;;;;;;;16.00;12.25;;;;;6.18;85.42;-18638.41;4971641;28;12413;-68
2022/03/30 05:40:09;;;;;;;;;16.25;10.50;;;;;6.19;85.43;-18638.56;4971933;28;12324;-69
2022/03/30 05:42:36;;;;;;;;;12.50;11.75;;;;;6.23;85.67;-18639.63;4970193;28;11540;-69
2022/03/30 05:45:04;;;;;;;;;15.75;13.50;;;;;6.27;85.56;-18640.84;4971030;28;11504;-69
2022/03/30 05:47:31;;;;;;;;;17.00;12.00;;;;;6.32;85.63;-18642.50;4970220;28;11290;-70
2022/03/30 05:49:58;;;;;;;;;11.00;10.75;;;;;6.42;85.63;-18645.38;4971746;28;11646;-69
2022/03/30 05:52:24;;;;;;;;;11.75;11.00;;;;;6.48;85.55;-18647.34;4974135;28;11591;-71
2022/03/30 05:54:50;;;;;;;;;15.50;10.25;;;;;6.48;84.97;-18647.19;4976459;28;11637;-71
2022/03/30 05:57:21;;;;;;;;;9.00;6.50;;;;;6.50;85.26;-18647.63;4973144;28;11535;-71
2022/03/30 05:59:48;;;;;;;;;13.50;12.75;;;;;6.50;85.22;-18647.63;4973455;28;11142;-71
2022/03/30 06:02:15;;;;;;;;;9.00;8.25;;;;;6.55;85.23;-18649.28;4969175;28;11348;-71
2022/03/30 06:04:43;;;;;;;;;13.50;8.50;;;;;6.54;85.55;-18648.84;4971078;28;11233;-71
2022/03/30 06:07:09;;;;;;;;;16.75;10.50;;;;;6.54;85.76;-18648.84;4965727;28;11066;-71
2022/03/30 06:09:35;;;;;;;;;7.75;7.75;;;;;6.51;86.08;-18648.09;4970860;28;11510;-71
2022/03/30 06:12:08;;;;;;;;;20.50;12.75;;;;;6.53;86.32;-18648.69;4970605;28;11503;-71
2022/03/30 06:14:35;;;;;;;;;17.25;13.00;;;;;6.52;86.62;-18648.38;4971479;28;11529;-71
2022/03/30 06:17:03;;;;;;;;;10.75;8.00;;;;;6.59;86.98;-18650.34;4972707;28;11588;-71
2022/03/30 06:19:31;;;;;;;;;14.25;12.50;;;;;6.60;86.75;-18650.81;4971629;28;12251;-71
2022/03/30 06:21:58;;;;;;;;;12.75;11.00;;;;;6.61;87.55;-18650.97;4971209;28;11659;-72
2022/03/30 06:24:24;;;;;;;;;15.00;13.00;;;;;6.61;88.37;-18651.09;4971613;28;11517;-71
2022/03/30 06:26:51;;;;;;;;;12.00;10.25;;;;;6.67;88.60;-18652.78;4969855;28;12347;-71
2022/03/30 06:29:18;;;;;;;;;16.00;9.00;;;;;6.58;88.96;-18650.19;4954352;28;11649;-72
2022/03/30 06:31:44;;;;;;;;;10.25;8.00;;;;;6.70;89.25;-18653.84;4970397;28;11310;-71
2022/03/30 06:34:11;;;;;;;;;10.25;10.00;;;;;6.73;89.15;-18654.59;4971658;28;11258;-71
2022/03/30 06:36:38;;;;;;;;;8.75;7.00;;;;;6.73;89.34;-18654.59;4970442;28;11359;-72
2022/03/30 06:39:05;;;;;;;;;11.00;7.00;;;;;6.69;89.56;-18653.53;4971224;28;11251;-72
2022/03/30 06:41:32;;;;;;;;;4.25;4.25;;;;;6.66;90.20;-18652.63;4969961;28;11337;-71
2022/03/30 06:43:59;;;;;;;;;6.50;4.00;;;;;6.98;91.34;-18662.16;4970602;28;11066;-72
2022/03/30 06:46:26;;;;;;;;;7.50;6.75;;;;;6.90;89.73;-18659.72;4968953;28;11109;-72
2022/03/30 06:48:53;;;;;;;;;5.50;5.50;;;;;6.75;89.33;-18655.19;4971541;28;11472;-71
2022/03/30 06:51:19;;;;;;;;;5.25;4.75;;;;;6.72;89.91;-18654.28;4970476;28;11292;-71
2022/03/30 06:53:46;;;;;;;;;5.50;5.00;;;;;6.69;88.96;-18653.53;4969844;28;10922;-72
2022/03/30 06:56:13;;;;;;;;;3.00;3.00;;;;;6.73;88.41;-18654.75;4971343;28;11304;-72
2022/03/30 06:58:39;;;;;;;;;3.00;3.00;;;;;6.80;87.19;-18656.69;4971229;28;11128;-73
2022/03/30 07:01:05;;;;;;;;;2.50;2.50;;;;;6.75;86.35;-18655.34;4967998;28;11048;-72
2022/03/30 07:03:32;;;;;;;;;1.00;1.00;;;;;6.79;86.05;-18656.56;4970965;28;11093;-69
2022/03/30 07:06:01;;;;;;;;;1.25;1.00;;;;;6.81;85.31;-18656.84;4969916;28;11582;-69
2022/03/30 07:11:13;;;;;;;;;2.25;2.25;;;;;6.71;84.79;-18653.97;4968651;28;11102;-70
2022/03/30 07:13:39;;;;;;;;;1.00;1.00;;;;;6.78;84.59;-18656.09;4970967;28;11771;-69
2022/03/30 07:16:06;;;;;;;;;0.50;0.50;;;;;6.89;84.23;-18659.41;4970691;28;11009;-71
2022/03/30 07:18:32;;;;;;;;;4.75;3.75;;;;;6.86;84.27;-18658.38;4970161;28;10919;-70
2022/03/30 07:20:59;;;;;;;;;2.00;1.50;;;;;7.03;83.54;-18663.50;4955957;28;11069;-70
2022/03/30 07:23:25;;;;;;;;;1.75;1.00;;;;;7.16;83.48;-18667.44;4966721;28;10840;-69
2022/03/30 07:25:53;;;;;;;;;1.00;1.00;;;;;7.20;81.72;-18668.66;4969244;28;10957;-70
2022/03/30 07:28:20;;;;;;;;;2.00;2.00;;;;;7.17;80.93;-18667.59;4971685;28;11014;-69
2022/03/30 07:30:48;;;;;;;;;1.25;0.25;;;;;7.09;80.85;-18665.47;4975314;28;10922;-71
2022/03/30 07:33:16;;;;;;;;;3.50;1.00;;;;;7.15;81.00;-18666.97;4970940;28;10897;-70
2022/03/30 07:35:48;;;;;;;;;1.00;1.00;;;;;7.21;80.90;-18668.78;4970992;28;10914;-72
2022/03/30 07:38:17;;;;;;;;;2.50;1.00;;;;;7.10;80.90;-18665.78;4969453;28;10901;-70
2022/03/30 07:40:45;;;;;;;;;2.00;1.50;;;;;7.14;81.20;-18666.69;4971986;28;10778;-69
2022/03/30 07:43:13;;;;;;;;;2.25;1.00;;;;;7.21;80.91;-18668.78;4972020;28;10743;-72
2022/03/30 07:45:41;;;;;;;;;1.50;1.00;;;;;7.22;80.89;-18669.25;4968407;28;11544;-70
2022/03/30 07:48:08;;;;;;;;;3.00;1.00;;;;;7.35;80.96;-18673.19;4972795;28;10894;-70
2022/03/30 07:50:36;;;;;;;;;2.25;1.75;;;;;7.28;79.95;-18670.91;4972146;28;10760;-71
2022/03/30 07:53:03;;;;;;;;;2.00;0.00;;;;;7.29;80.13;-18671.22;4971112;28;10742;-69
2022/03/30 07:55:30;;;;;;;;;0.00;0.00;;;;;7.23;79.45;-18669.56;4966921;28;10771;-69
2022/03/30 07:57:56;;;;;;;;;4.75;3.00;;;;;7.37;79.41;-18673.78;4965126;28;10808;-72
2022/03/30 08:00:23;;;;;;;;;5.00;5.00;;;;;7.30;77.61;-18671.66;4965752;28;10962;-71
2022/03/30 08:02:50;;;;;;;;;5.00;5.00;;;;;7.32;77.81;-18672.13;4965924;28;10942;-71
2022/03/30 08:05:17;;;;;;;;;1.50;1.50;;;;;7.33;78.28;-18672.56;4964630;28;10783;-69
2022/03/30 08:07:45;;;;;;;;;3.00;1.50;;;;;7.30;79.47;-18671.66;4966030;28;10683;-70
2022/03/30 08:10:12;;;;;;;;;1.75;1.00;;;;;7.39;79.36;-18674.22;4965889;28;10705;-69
2022/03/30 08:12:42;;;;;;;;;5.00;3.00;;;;;7.43;79.67;-18675.44;4965201;28;10833;-70
2022/03/30 08:15:13;;;;;;;;;2.75;2.75;;;;;7.47;79.62;-18676.66;4963657;28;10776;-71
2022/03/30 08:17:40;;;;;;;;;2.00;1.25;;;;;7.53;79.11;-18678.31;4965588;28;10619;-69
2022/03/30 08:20:07;;;;;;;;;0.75;0.75;;;;;7.52;79.86;-18678.00;4964534;28;11453;-73
2022/03/30 08:22:34;;;;;;;;;3.00;1.00;;;;;7.58;78.73;-18679.81;4979548;28;10825;-72
2022/03/30 08:25:06;;;;;;;;;2.75;2.75;;;;;7.52;79.19;-18678.00;4965358;28;11242;-69
2022/03/30 08:27:35;;;;;;;;;3.00;3.00;;;;;7.47;80.14;-18676.50;4966039;28;10702;-72
2022/03/30 08:30:04;;;;;;;;;7.00;7.00;;;;;7.57;80.56;-18679.53;4964504;28;10943;-70
2022/03/30 08:32:30;;;;;;;;;11.00;7.25;;;;;7.50;79.52;-18677.41;4964352;28;11171;-69
2022/03/30 08:34:57;;;;;;;;;7.00;7.00;;;;;7.54;79.21;-18678.63;4963485;28;10938;-69
2022/03/30 08:37:23;;;;;;;;;4.00;3.50;;;;;7.74;78.38;-18684.66;4965286;28;11591;-70
2022/03/30 08:39:53;;;;;;;;;5.50;2.00;;;;;7.72;77.67;-18684.22;4963874;28;10724;-70
2022/03/30 08:42:20;;;;;;;;;7.50;5.00;;;;;7.92;77.36;-18690.09;4964377;28;10776;-69
2022/03/30 08:44:47;;;;;;;;;6.75;6.00;;;;;8.13;77.51;-18696.13;4965030;28;10688;-72
2022/03/30 08:47:14;;;;;;;;;4.00;4.00;;;;;8.08;75.71;-18694.63;4969690;28;10853;-69
2022/03/30 08:49:42;;;;;;;;;3.25;3.25;;;;;7.99;75.09;-18692.06;4969885;28;10780;-71
2022/03/30 08:52:10;;;;;;;;;2.25;2.25;;;;;8.17;74.44;-18697.50;4968512;28;10978;-70
2022/03/30 08:54:42;;;;;;;;;4.00;1.00;;;;;8.28;73.50;-18700.81;4963946;28;10698;-73
2022/03/30 08:57:09;;;;;;;;;2.50;2.00;;;;;8.65;72.92;-18711.69;4963595;28;10694;-69
2022/03/30 08:59:35;;;;;;;;;5.50;4.00;;;;;8.51;71.25;-18707.47;4963842;28;10755;-70
2022/03/30 09:02:02;;;;;;;;;2.00;2.00;;;;;8.34;71.88;-18702.50;4963080;28;10793;-70
2022/03/30 09:04:29;;;;;;;;;3.00;1.00;;;;;8.68;70.89;-18712.47;4962918;28;10682;-72
2022/03/30 09:06:59;;;;;;;;;6.00;5.00;;;;;8.60;70.56;-18710.19;4962872;28;10569;-69
2022/03/30 09:09:38;;;;;;;;;4.50;2.50;;;;;8.89;70.02;-18718.94;4965035;28;10877;-70
2022/03/30 09:12:10;;;;;;;;;5.00;2.25;;;;;8.93;69.97;-18720.00;4962675;28;10497;-70
2022/03/30 09:14:39;;;;;;;;;3.75;3.75;;;;;8.89;68.48;-18718.94;4964954;28;10483;-71
2022/03/30 09:17:07;;;;;;;;;6.75;5.00;;;;;8.96;68.99;-18720.91;4963544;28;10590;-73
2022/03/30 09:19:38;;;;;;;;;5.00;2.75;;;;;8.87;68.83;-18718.34;4963908;28;10680;-72
2022/03/30 09:22:08;;;;;;;;;2.00;2.00;;;;;9.07;68.47;-18724.22;4962698;28;10638;-69
2022/03/30 09:24:37;;;;;;;;;6.25;6.00;;;;;9.07;67.68;-18724.09;4969093;28;10540;-69
2022/03/30 09:27:07;;;;;;;;;1.00;1.00;;;;;8.71;67.97;-18713.38;4965152;28;10620;-70
2022/03/30 09:29:37;;;;;;;;;3.00;2.75;;;;;8.75;68.00;-18714.72;4964209;28;10621;-71
2022/03/30 09:32:22;;;;;;;;;2.00;0.75;;;;;8.96;67.40;-18720.75;4961944;28;10544;-71
2022/03/30 09:34:54;;;;;;;;;1.00;1.00;;;;;9.26;67.44;-18729.81;4963698;28;10499;-70
2022/03/30 09:37:21;;;;;;;;;6.00;4.00;;;;;9.41;65.95;-18734.34;4962745;28;10447;-70
2022/03/30 09:39:49;;;;;;;;;2.00;1.00;;;;;9.42;66.79;-18734.66;4963952;28;10557;-71
2022/03/30 09:42:17;;;;;;;;;2.25;1.75;;;;;9.86;64.85;-18747.78;4963743;28;10801;-70
2022/03/30 09:44:51;;;;;;;;;4.00;2.25;;;;;9.68;64.43;-18742.19;4963323;28;10571;-70
2022/03/30 09:47:21;;;;;;;;;2.00;2.00;;;;;9.79;63.28;-18745.66;4962926;28;10512;-70
2022/03/30 09:49:52;;;;;;;;;2.00;1.75;;;;;9.26;63.39;-18729.81;4960971;28;10510;-70
2022/03/30 09:52:24;;;;;;;;;0.00;0.00;;;;;9.39;63.95;-18733.75;4961626;28;10287;-71
2022/03/30 09:54:51;;;;;;;;;2.00;0.00;;;;;9.41;62.32;-18734.34;4963163;28;10271;-71
2022/03/30 09:57:24;;;;;;;;;1.00;1.00;;;;;9.69;62.04;-18742.66;4962259;28;10422;-70
2022/03/30 09:59:54;;;;;;;;;1.75;1.75;;;;;9.74;61.30;-18744.00;4978365;28;10331;-69
2022/03/30 10:02:21;;;;;;;;;2.00;1.00;;;;;9.55;61.11;-18738.56;4963032;28;10596;-69
2022/03/30 10:04:49;;;;;;;;;2.00;2.00;;;;;9.35;61.98;-18732.38;4962178;28;10202;-69
2022/03/30 10:07:16;;;;;;;;;0.00;0.00;;;;;9.62;62.47;-18740.53;4962907;28;10458;-70
2022/03/30 10:09:44;;;;;;;;;0.00;0.00;;;;;9.94;61.21;-18750.06;4961000;28;10375;-70
2022/03/30 10:12:15;;;;;;;;;0.00;0.00;;;;;10.02;59.41;-18752.31;4962292;28;10510;-69
2022/03/30 10:14:42;;;;;;;;;0.75;0.75;;;;;9.92;60.44;-18749.44;4964909;28;10307;-70
2022/03/30 10:17:08;;;;;;;;;2.00;0.00;;;;;10.26;59.68;-18759.41;4966210;28;10162;-69
2022/03/30 10:19:35;;;;;;;;;4.25;1.00;;;;;9.99;59.70;-18751.41;4959996;28;11650;-70
2022/03/30 10:22:30;;;;;;;;;1.00;1.00;;;;;9.96;59.15;-18750.50;4963149;28;10470;-70
2022/03/30 10:25:14;;;;;;;;;1.00;0.00;;;;;10.05;59.11;-18753.22;4962200;28;10352;-70
2022/03/30 10:27:58;;;;;;;;;1.00;1.00;;;;;10.31;58.87;-18760.91;4958617;28;10528;-72
2022/03/30 10:30:29;;;;;;;;;1.00;0.50;;;;;9.91;58.18;-18749.00;4959890;28;10381;-71
2022/03/30 10:33:02;;;;;;;;;1.00;0.00;;;;;10.00;58.30;-18751.84;4962995;28;10253;-68
2022/03/30 10:35:50;;;;;;;;;1.25;1.25;;;;;10.09;58.24;-18754.44;4960444;28;10261;-72
2022/03/30 10:38:17;;;;;;;;;4.00;1.50;;;;;9.64;58.51;-18741.13;4962555;28;10287;-69
2022/03/30 10:40:44;;;;;;;;;3.25;2.00;;;;;9.77;58.61;-18745.06;4968323;28;10074;-69
2022/03/30 10:43:30;;;;;;;;;1.00;1.00;;;;;9.90;58.49;-18748.69;4967329;28;10394;-69
2022/03/30 10:46:02;;;;;;;;;1.25;1.25;;;;;9.48;60.82;-18736.31;4967104;28;10196;-69
2022/03/30 10:48:28;;;;;;;;;2.00;1.00;;;;;9.47;60.54;-18736.00;4969284;28;10248;-69
2022/03/30 10:50:55;;;;;;;;;1.75;0.25;;;;;9.51;59.86;-18737.22;4968909;28;10217;-68
2022/03/30 10:53:47;;;;;;;;;5.25;2.25;;;;;9.56;60.27;-18738.88;4968000;28;10129;-71
2022/03/30 10:56:22;;;;;;;;;1.25;1.00;;;;;9.81;59.34;-18746.28;4967417;28;10409;-70
2022/03/30 10:59:00;;;;;;;;;1.00;1.00;;;;;9.64;58.85;-18741.00;4966872;28;10257;-69
2022/03/30 11:01:32;;;;;;;;;2.00;2.00;;;;;10.04;58.57;-18753.06;4962723;28;10453;-72
2022/03/30 11:04:00;;;;;;;;;1.00;0.50;;;;;9.79;58.39;-18745.53;4968449;28;10412;-69
2022/03/30 11:06:29;;;;;;;;;1.25;0.25;;;;;10.01;57.81;-18752.16;4968489;28;11073;-70
2022/03/30 11:08:56;;;;;;;;;1.00;1.00;;;;;10.20;56.67;-18757.75;4966371;28;10274;-71
2022/03/30 11:11:34;;;;;;;;;1.50;0.00;;;;;10.20;55.80;-18757.59;4959112;28;11017;-70
2022/03/30 11:14:26;;;;;;;;;1.00;1.00;;;;;9.51;57.11;-18737.22;4965017;28;10190;-71
2022/03/30 11:16:57;;;;;;;;;1.00;1.00;;;;;9.72;57.48;-18743.41;4966213;28;10364;-71
2022/03/30 11:19:30;;;;;;;;;1.00;1.00;;;;;9.49;57.12;-18736.78;4965854;28;10312;-72
2022/03/30 11:22:09;;;;;;;;;2.00;1.25;;;;;9.72;57.31;-18743.41;4961267;28;10360;-71
2022/03/30 11:24:37;;;;;;;;;1.00;1.00;;;;;9.91;56.08;-18749.13;4966380;28;10433;-70
2022/03/30 11:27:04;;;;;;;;;1.75;1.75;;;;;9.92;56.69;-18749.44;4965135;28;10375;-72
2022/03/30 11:29:53;;;;;;;;;1.00;1.00;;;;;9.68;55.97;-18742.19;4966607;28;10369;-72
2022/03/30 11:32:19;;;;;;;;;0.00;0.00;;;;;9.73;56.72;-18743.72;4966140;28;10285;-73
2022/03/30 11:34:48;;;;;;;;;1.00;1.00;;;;;10.11;55.85;-18755.19;4965427;28;10019;-72